Time;durP1;ratioP1;P1;durP2;ratioP2;P2;SDS_P1;SDS_P2;PMS_P1;PMS_P2;Temp;Humidity;BMP_temperature;BMP_pressure;BME280_temperature;BME280_humidity;BME280_pressure;Samples;Min_cycle;Max_cycle;Signal;HPM_P1;HPM_P2
2023/07/27 00:01:52;;;;;;;7.20;7.00;;;;;;;-141.02;100.00;39060.00;5137276;27;20279;-58
2023/07/27 00:04:22;;;;;;;8.00;7.80;;;;;;;-141.02;100.00;38843.31;5137217;27;20227;-61
2023/07/27 00:06:49;;;;;;;8.55;8.35;;;;;;;-141.02;100.00;38854.81;5137168;27;20633;-58
2023/07/27 00:09:16;;;;;;;8.50;8.30;;;;;;;-141.02;100.00;38766.63;5136894;27;20644;-62
2023/07/27 00:11:43;;;;;;;8.85;8.65;;;;;;;-141.02;100.00;38734.03;5137106;27;20188;-60
2023/07/27 00:17:33;;;;;;;10.60;10.30;;;;;;;-141.02;100.00;38649.66;5136650;27;20785;-59
2023/07/27 00:20:38;;;;;;;10.65;10.35;;;;;;;-141.02;100.00;38684.16;5136578;27;20642;-61
2023/07/27 00:23:05;;;;;;;10.90;10.60;;;;;;;-141.02;100.00;38718.69;5136708;27;20564;-60
2023/07/27 00:25:32;;;;;;;11.00;10.70;;;;;;;-141.02;100.00;38737.84;5136835;27;20238;-60
2023/07/27 00:27:59;;;;;;;11.10;10.80;;;;;;;-141.02;100.00;38737.84;5136700;27;20188;-62
2023/07/27 00:30:26;;;;;;;11.10;10.80;;;;;;;-141.02;100.00;38751.28;5136752;27;20271;-61
2023/07/27 00:32:55;;;;;;;10.80;10.50;;;;;;;-141.02;100.00;38776.19;5136387;27;20193;-58
2023/07/27 00:35:22;;;;;;;10.55;10.25;;;;;;;-141.02;100.00;38795.38;5136714;27;20192;-58
2023/07/27 00:37:49;;;;;;;10.70;10.40;;;;;;;-141.02;100.00;38760.84;5136267;27;20690;-63
2023/07/27 00:40:21;;;;;;;10.90;10.60;;;;;;;-141.02;100.00;38810.72;5136506;27;20203;-60
2023/07/27 00:43:05;;;;;;;11.10;10.80;;;;;;;-141.02;100.00;38803.03;5136516;27;20196;-61
2023/07/27 00:45:32;;;;;;;10.60;10.30;;;;;;;-141.02;100.00;38814.56;5136136;27;20283;-64
2023/07/27 00:48:00;;;;;;;10.60;10.30;;;;;;;-141.02;100.00;38833.72;5136442;27;20276;-60
2023/07/27 00:50:28;;;;;;;10.50;10.20;;;;;;;-141.02;100.00;38822.22;5136040;27;20203;-65
2023/07/27 00:52:55;;;;;;;10.50;10.20;;;;;;;-141.02;100.00;38826.06;5136394;27;20218;-58
2023/07/27 00:55:38;;;;;;;10.50;10.20;;;;;;;-141.02;100.00;38849.06;5136198;27;20279;-60
2023/07/27 00:58:08;;;;;;;10.40;10.10;;;;;;;-141.02;100.00;38868.25;5136199;27;20230;-59
2023/07/27 01:00:35;;;;;;;10.77;10.48;;;;;;;-141.02;100.00;38849.06;5135821;27;20604;-65
2023/07/27 01:03:05;;;;;;;10.35;10.05;;;;;;;-141.02;100.00;38864.41;5135820;27;20224;-61
2023/07/27 01:05:34;;;;;;;10.70;10.40;;;;;;;-141.02;100.00;38852.91;5134567;27;20202;-59
2023/07/27 01:08:39;;;;;;;10.80;10.50;;;;;;;-141.02;100.00;38874.00;5136038;27;20193;-59
2023/07/27 01:11:37;;;;;;;10.60;10.30;;;;;;;-141.02;100.00;38837.56;5072667;28;20209;-59
2023/07/27 01:14:11;;;;;;;10.88;10.57;;;;;;;-141.02;100.00;38904.66;5072469;28;20240;-59
2023/07/27 01:16:46;;;;;;;11.30;11.00;;;;;;;-141.02;100.00;38891.25;5072459;28;20281;-59
2023/07/27 01:19:59;;;;;;;11.57;11.27;;;;;;;-141.02;100.00;38906.59;5072337;28;20193;-59
2023/07/27 01:22:58;;;;;;;11.23;10.93;;;;;;;-141.02;100.00;38937.28;5071335;28;20237;-64
2023/07/27 01:26:22;;;;;;;11.18;10.88;;;;;;;-141.02;100.00;38958.38;4992990;28;20200;-59
2023/07/27 01:29:04;;;;;;;11.32;11.02;;;;;;;-141.02;100.00;38958.38;4943936;28;20201;-62
2023/07/27 01:31:41;;;;;;;11.10;10.80;;;;;;;-141.02;100.00;38898.91;4992809;28;20649;-58
2023/07/27 01:34:14;;;;;;;10.90;10.60;;;;;;;-141.02;100.00;38914.25;5043749;28;20202;-59
2023/07/27 01:37:35;;;;;;;11.00;10.70;;;;;;;-141.02;100.00;38956.44;5071735;28;20266;-61
2023/07/27 01:40:13;;;;;;;11.40;11.10;;;;;;;-141.02;100.00;38946.84;5071812;28;20205;-60
2023/07/27 01:43:04;;;;;;;12.00;11.60;;;;;;;-141.02;100.00;38975.63;5071851;28;20202;-64
2023/07/27 01:45:31;;;;;;;11.55;11.25;;;;;;;-141.02;100.00;38989.03;5072219;28;20282;-65
2023/07/27 01:48:04;;;;;;;11.43;11.13;;;;;;;-141.02;100.00;39015.88;5093529;27;20203;-64
2023/07/27 01:50:52;;;;;;;11.75;11.43;;;;;;;-141.02;100.00;38989.03;5134819;27;20624;-65
2023/07/27 01:53:31;;;;;;;11.38;11.07;;;;;;;-141.02;100.00;38987.13;5135086;27;20275;-63
2023/07/27 01:59:19;;;;;;;10.93;10.63;;;;;;;-141.02;100.00;39000.53;5134859;27;20176;-64
2023/07/27 02:01:55;;;;;;;11.10;10.80;;;;;;;-141.02;100.00;39036.97;5135065;27;20278;-65
2023/07/27 02:04:58;;;;;;;11.05;10.75;;;;;;;-141.02;100.00;39025.47;5134531;27;20672;-64
2023/07/27 02:07:48;;;;;;;11.07;10.77;;;;;;;-141.02;100.00;39044.66;5134855;27;20585;-63
2023/07/27 02:10:22;;;;;;;11.40;11.10;;;;;;;-141.02;100.00;39061.91;5134794;27;20188;-66
2023/07/27 02:12:56;;;;;;;11.90;11.50;;;;;;;-141.02;100.00;39044.66;5134770;27;20188;-67
2023/07/27 02:15:26;;;;;;;11.90;11.50;;;;;;;-141.02;100.00;39079.16;5134445;27;20245;-66
2023/07/27 02:17:59;;;;;;;12.07;11.68;;;;;;;-141.02;100.00;39086.84;5133795;27;20234;-65
2023/07/27 02:20:32;;;;;;;12.63;12.23;;;;;;;-141.02;100.00;39060.00;5134390;27;20234;-66
2023/07/27 02:23:36;;;;;;;12.43;12.02;;;;;;;-141.02;100.00;39077.25;5134268;27;20276;-64
2023/07/27 02:26:20;;;;;;;11.95;11.55;;;;;;;-141.02;100.00;39083.00;5134200;27;20649;-65
2023/07/27 02:28:47;;;;;;;12.10;11.70;;;;;;;-141.02;100.00;39134.78;5134086;27;20192;-66
2023/07/27 02:31:14;;;;;;;12.55;12.15;;;;;;;-141.02;100.00;39125.19;5134082;27;20202;-64
2023/07/27 02:33:41;;;;;;;13.00;12.60;;;;;;;-141.02;100.00;39150.13;5134358;27;20232;-63
2023/07/27 02:36:09;;;;;;;12.27;11.88;;;;;;;-141.02;100.00;39150.13;5133743;27;20202;-63
2023/07/27 02:38:38;;;;;;;12.50;12.10;;;;;;;-141.02;100.00;39175.06;5133882;27;20216;-65
2023/07/27 02:41:10;;;;;;;12.40;12.00;;;;;;;-141.02;100.00;39140.53;5134152;27;20199;-64
2023/07/27 02:43:51;;;;;;;11.73;11.38;;;;;;;-141.02;100.00;39140.53;5133848;27;20721;-64
2023/07/27 02:46:18;;;;;;;11.70;11.40;;;;;;;-141.02;100.00;39182.72;5134122;27;20231;-66
2023/07/27 02:48:45;;;;;;;12.40;12.00;;;;;;;-141.02;100.00;39240.25;5134163;27;20199;-65
2023/07/27 02:51:13;;;;;;;12.27;11.88;;;;;;;-141.02;100.00;39224.91;5134048;27;20199;-66
2023/07/27 02:53:40;;;;;;;11.82;11.43;;;;;;;-141.02;100.00;39234.50;5133657;27;20659;-58
2023/07/27 02:56:18;;;;;;;12.32;11.93;;;;;;;-141.02;100.00;39247.91;5133936;27;20200;-58
2023/07/27 02:58:45;;;;;;;12.40;12.00;;;;;;;-141.02;100.00;39255.59;5133551;27;20610;-59
2023/07/27 03:01:12;;;;;;;12.25;11.85;;;;;;;-141.02;100.00;39324.63;5133527;27;20231;-60
2023/07/27 03:03:38;;;;;;;11.90;11.50;;;;;;;-141.02;100.00;39332.31;5133745;27;20202;-58
2023/07/27 03:06:46;;;;;;;11.68;11.27;;;;;;;-141.02;100.00;39382.16;5133771;27;20247;-59
2023/07/27 03:09:14;;;;;;;11.18;10.88;;;;;;;-141.02;100.00;39451.22;5133710;27;20278;-60
2023/07/27 03:11:41;;;;;;;11.90;11.50;;;;;;;-141.02;100.00;39506.81;5133298;27;20242;-65
2023/07/27 03:14:08;;;;;;;11.57;11.23;;;;;;;-141.02;100.00;39545.19;5133603;27;20196;-59
2023/07/27 03:16:35;;;;;;;11.10;10.80;;;;;;;-141.02;100.00;39595.03;5133186;27;20238;-61
2023/07/27 03:19:02;;;;;;;10.90;10.60;;;;;;;-141.02;100.00;39666.00;5133153;27;20602;-63
2023/07/27 03:21:37;;;;;;;10.60;10.30;;;;;;;-141.02;100.00;39777.25;5133504;27;20199;-60
2023/07/27 03:24:39;;;;;;;10.50;10.20;;;;;;;-141.02;100.00;39944.13;5133495;27;20249;-60
2023/07/27 03:27:24;;;;;;;9.90;9.60;;;;;;;-141.02;100.00;40091.81;5133432;27;20283;-59
2023/07/27 03:29:51;;;;;;;10.40;10.10;;;;;;;-141.02;100.00;40111.00;5132294;27;20292;-59
2023/07/27 03:36:17;;;;;;;10.73;10.43;;;;;;;-141.02;100.00;40183.88;5133205;27;20241;-60
2023/07/27 03:42:46;;;;;;;15.23;14.55;;;;;;;-141.02;100.00;40274.06;5092162;28;20220;-59
2023/07/27 03:55:55;;;;;;;10.20;9.90;;;;;;;-141.02;100.00;40559.88;5091924;28;20250;-62
2023/07/27 03:59:17;;;;;;;10.18;9.88;;;;;;;-141.02;100.00;40534.94;5091839;28;20283;-59
2023/07/27 04:05:06;;;;;;;10.57;10.27;;;;;;;-141.02;100.00;40490.81;5091937;28;20243;-61
2023/07/27 04:07:33;;;;;;;9.88;9.57;;;;;;;-141.02;100.00;40486.97;5092071;28;20280;-60
2023/07/27 04:10:20;;;;;;;10.48;10.18;;;;;;;-141.02;100.00;40533.03;5092094;28;20198;-61
2023/07/27 04:12:49;;;;;;;10.35;10.05;;;;;;;-141.02;100.00;40483.16;5092119;28;20198;-63
2023/07/27 04:19:14;;;;;;;10.68;10.38;;;;;;;-141.02;100.00;40450.53;5091782;28;20728;-59
2023/07/27 04:22:26;;;;;;;11.20;10.90;;;;;;;-141.02;100.00;40521.50;5091701;28;20296;-63
2023/07/27 04:34:59;;;;;;;11.00;10.70;;;;;;;-141.02;100.00;40694.19;5091742;28;20702;-58
2023/07/27 04:37:26;;;;;;;11.10;10.80;;;;;;;-141.02;100.00;40675.00;5107748;28;20261;-61
2023/07/27 04:40:24;;;;;;;11.30;11.00;;;;;;;-141.02;100.00;40655.81;5133409;27;20279;-59
2023/07/27 04:43:24;;;;;;;11.10;10.80;;;;;;;-141.02;100.00;40621.28;5136552;27;20271;-62
2023/07/27 04:45:51;;;;;;;10.80;10.50;;;;;;;-141.02;100.00;40657.72;5136178;27;20192;-59
2023/07/27 04:48:45;;;;;;;10.80;10.50;;;;;;;-141.02;100.00;40851.50;5136149;27;20291;-61
2023/07/27 04:51:30;;;;;;;10.80;10.50;;;;;;;-141.02;100.00;40701.84;5136351;27;20279;-61
2023/07/27 04:54:40;;;;;;;11.00;10.70;;;;;;;-141.02;100.00;40740.22;5136080;27;20281;-59
2023/07/27 04:57:40;;;;;;;11.20;10.90;;;;;;;-141.02;100.00;40861.09;5136405;27;20647;-59
2023/07/27 05:00:10;;;;;;;11.38;11.07;;;;;;;-141.02;100.00;40905.22;5135932;27;20196;-63
2023/07/27 05:02:37;;;;;;;11.18;10.88;;;;;;;-141.02;100.00;40905.22;5135913;27;20663;-60
2023/07/27 05:05:05;;;;;;;11.90;11.52;;;;;;;-141.02;100.00;40905.22;5136156;27;20261;-64
2023/07/27 05:07:33;;;;;;;11.70;11.40;;;;;;;-141.02;100.00;40951.28;5135704;27;20227;-59
2023/07/27 05:10:00;;;;;;;12.98;12.57;;;;;;;-141.02;100.00;40989.66;5135736;27;20202;-59
2023/07/27 05:12:28;;;;;;;13.20;12.80;;;;;;;-141.02;100.00;41012.66;5135925;27;20236;-61
2023/07/27 05:14:55;;;;;;;13.50;13.10;;;;;;;-141.02;100.00;41114.38;5135963;27;20287;-59
2023/07/27 05:17:22;;;;;;;13.50;13.10;;;;;;;-141.02;100.00;41081.75;5135588;27;20193;-60
2023/07/27 05:19:49;;;;;;;13.00;12.60;;;;;;;-141.02;100.00;41058.72;5135478;27;20220;-60
2023/07/27 05:22:16;;;;;;;12.93;12.52;;;;;;;-141.02;100.00;41047.22;5135770;27;20197;-63
2023/07/27 05:24:45;;;;;;;13.20;12.80;;;;;;;-141.02;100.00;41024.19;5135715;27;20620;-59
2023/07/27 05:27:12;;;;;;;13.23;12.82;;;;;;;-141.02;100.00;40991.56;5135431;27;20275;-62
2023/07/27 05:29:38;;;;;;;13.15;12.75;;;;;;;-141.02;100.00;40949.34;5135354;27;20674;-59
2023/07/27 05:32:08;;;;;;;13.10;12.70;;;;;;;-141.02;100.00;40916.75;5135556;27;20257;-64
2023/07/27 05:34:34;;;;;;;13.15;12.75;;;;;;;-141.02;100.00;40905.22;5135594;27;20219;-61
2023/07/27 05:37:02;;;;;;;13.10;12.70;;;;;;;-141.02;100.00;40822.72;5134962;27;20235;-62
2023/07/27 05:39:29;;;;;;;13.30;12.90;;;;;;;-141.02;100.00;40797.78;5135126;27;20303;-59
2023/07/27 05:41:57;;;;;;;12.88;12.48;;;;;;;-141.02;100.00;40824.63;5135066;27;20713;-59
2023/07/27 05:44:24;;;;;;;13.20;12.80;;;;;;;-141.02;100.00;40790.09;5135453;27;20234;-62
2023/07/27 05:46:55;;;;;;;13.07;12.68;;;;;;;-141.02;100.00;40855.34;5135404;27;20276;-61
2023/07/27 05:49:22;;;;;;;13.02;12.63;;;;;;;-141.02;100.00;40960.88;5135268;27;20267;-60
2023/07/27 05:51:49;;;;;;;12.93;12.52;;;;;;;-141.02;100.00;41273.63;5134121;27;20284;-62
2023/07/27 05:54:16;;;;;;;13.95;13.55;;;;;;;-141.02;100.00;41285.13;5135145;27;20275;-61
2023/07/27 05:56:43;;;;;;;15.18;14.68;;;;;;;-141.02;100.00;41287.06;5135174;27;20250;-62
2023/07/27 05:59:12;;;;;;;15.70;15.20;;;;;;;-141.02;100.00;41342.69;5135055;27;20263;-60
2023/07/27 06:01:39;;;;;;;15.68;15.18;;;;;;;-141.02;100.00;41344.63;5134717;27;20239;-63
2023/07/27 06:04:06;;;;;;;14.93;14.43;;;;;;;-141.02;98.34;41388.75;5135007;27;20220;-62
2023/07/27 06:06:33;;;;;;;16.17;15.57;;;;;;;-141.02;96.72;41407.94;5134616;27;20235;-59
2023/07/27 06:09:00;;;;;;;17.08;16.45;;;;;;;-141.02;96.00;41480.88;5134700;27;20238;-65
2023/07/27 06:11:27;;;;;;;17.30;16.60;;;;;;;-141.02;93.61;41473.19;5134404;27;20279;-59
2023/07/27 06:13:54;;;;;;;17.70;17.00;;;;;;;-141.02;92.32;41536.53;5134521;27;20189;-63
2023/07/27 06:16:24;;;;;;;17.00;16.30;;;;;;;-141.02;90.63;41477.03;5134408;27;20231;-64
2023/07/27 06:18:51;;;;;;;17.58;16.88;;;;;;;-141.02;90.20;41603.69;5134263;27;20232;-62
2023/07/27 06:21:17;;;;;;;17.45;16.75;;;;;;;-141.02;88.87;41607.53;5134376;27;20283;-64
2023/07/27 06:23:44;;;;;;;17.33;16.63;;;;;;;-141.02;89.02;41649.75;5134261;27;20245;-59
2023/07/27 06:26:11;;;;;;;17.73;16.92;;;;;;;-141.02;88.93;41676.59;5134211;27;20288;-65
2023/07/27 06:28:38;;;;;;;17.25;16.55;;;;;;;-141.02;88.83;41715.00;5134341;27;20239;-65
2023/07/27 06:31:05;;;;;;;17.95;17.25;;;;;;;-141.02;87.50;41711.16;5134473;27;20291;-66
2023/07/27 06:33:34;;;;;;;18.33;17.52;;;;;;;-141.02;88.86;41749.53;5134388;27;20231;-64
2023/07/27 06:36:02;;;;;;;18.30;17.50;;;;;;;-141.02;88.05;41780.25;5134016;27;20681;-60
2023/07/27 06:38:29;;;;;;;17.75;17.05;;;;;;;-141.02;88.69;41753.38;5133845;27;20239;-63
2023/07/27 06:40:55;;;;;;;18.50;17.70;;;;;;;-141.02;86.94;41818.63;5134208;27;20188;-63
2023/07/27 06:43:22;;;;;;;17.77;17.08;;;;;;;-141.02;85.00;41814.78;5133809;27;20198;-66
2023/07/27 06:45:49;;;;;;;18.08;17.38;;;;;;;-141.02;84.64;41814.78;5133772;27;20199;-62
2023/07/27 06:48:17;;;;;;;17.98;17.20;;;;;;;-141.02;84.17;41845.50;5133755;27;20224;-64
2023/07/27 06:50:45;;;;;;;17.67;16.98;;;;;;;-141.02;85.22;41849.34;5134058;27;20199;-62
2023/07/27 06:53:12;;;;;;;18.05;17.25;;;;;;;-141.02;82.96;41876.19;5133972;27;20619;-60
2023/07/27 06:55:39;;;;;;;18.20;17.40;;;;;;;-141.02;81.37;41910.75;5133988;27;20580;-66
2023/07/27 06:58:06;;;;;;;18.40;17.60;;;;;;;-141.02;80.98;41929.94;5133551;27;20204;-59
2023/07/27 07:00:33;;;;;;;18.05;17.25;;;;;;;-141.02;81.67;41968.31;5133558;27;20287;-66
2023/07/27 07:03:00;;;;;;;17.95;17.15;;;;;;;-141.02;81.04;41976.00;5133752;27;20206;-63
2023/07/27 07:05:27;;;;;;;18.50;17.70;;;;;;;-141.02;82.60;41960.66;5133792;27;20228;-65
2023/07/27 07:07:55;;;;;;;18.48;17.65;;;;;;;-141.02;80.30;42006.72;5133497;27;20287;-64
2023/07/27 07:10:22;;;;;;;18.30;17.50;;;;;;;-141.02;82.52;42023.97;5133425;27;20204;-65
2023/07/27 07:12:49;;;;;;;18.27;17.48;;;;;;;-141.02;80.98;42037.41;5133382;27;20269;-65
2023/07/27 07:15:17;;;;;;;18.17;17.38;;;;;;;-141.02;80.60;42045.09;5133624;27;20223;-64
2023/07/27 07:17:44;;;;;;;18.75;17.95;;;;;;;-141.02;81.41;42064.28;5133509;27;20243;-66
2023/07/27 07:20:11;;;;;;;18.45;17.65;;;;;;;-141.02;81.38;42060.44;5133152;27;20220;-59
2023/07/27 07:22:38;;;;;;;19.25;18.35;;;;;;;-141.02;79.93;42087.31;5133227;27;20287;-65
2023/07/27 07:25:07;;;;;;;19.02;18.15;;;;;;;-141.02;79.58;42081.56;5133492;27;20188;-63
2023/07/27 07:27:34;;;;;;;18.42;17.63;;;;;;;-141.02;78.44;42106.50;5133496;27;20369;-65
2023/07/27 07:30:04;;;;;;;18.30;17.50;;;;;;;-141.02;77.59;42160.25;5133371;27;20200;-63
2023/07/27 07:32:31;;;;;;;18.33;17.52;;;;;;;-141.02;76.09;42152.56;5133057;27;20199;-64
2023/07/27 07:34:58;;;;;;;18.42;17.63;;;;;;;-141.02;77.06;42166.00;5133047;27;20213;-63
2023/07/27 07:37:25;;;;;;;18.30;17.50;;;;;;;-141.02;77.05;42175.59;5132867;27;20307;-66
2023/07/27 07:39:52;;;;;;;18.92;18.02;;;;;;;-141.02;77.40;42212.06;5132942;27;20220;-65
2023/07/27 07:42:20;;;;;;;18.65;17.77;;;;;;;-141.02;75.64;42196.72;5132970;27;20189;-61
2023/07/27 07:44:47;;;;;;;18.85;17.95;;;;;;;-141.02;75.99;42258.13;5132963;28;20578;-64
2023/07/27 07:47:14;;;;;;;18.90;18.00;;;;;;;-141.02;76.28;42263.91;5133156;28;20275;-65
2023/07/27 07:49:41;;;;;;;18.50;17.70;;;;;;;-141.02;75.73;42290.78;5133192;28;20203;-64
2023/07/27 07:52:08;;;;;;;18.15;17.35;;;;;;;-141.02;73.59;42271.56;5133143;28;20287;-61
2023/07/27 07:54:35;;;;;;;19.10;18.20;;;;;;;-141.02;74.71;42313.81;5132869;27;20767;-65
2023/07/27 07:57:02;;;;;;;18.17;17.38;;;;;;;-141.02;75.59;42325.31;5133135;28;20283;-65
2023/07/27 07:59:31;;;;;;;18.65;17.75;;;;;;;-141.02;75.09;42340.69;5132983;28;20284;-59
2023/07/27 08:01:58;;;;;;;18.00;17.30;;;;;;;-141.02;74.29;42338.75;5132808;28;20279;-59
2023/07/27 08:04:24;;;;;;;18.60;17.70;;;;;;;-141.02;74.65;42356.03;5132734;28;20575;-60
2023/07/27 08:06:51;;;;;;;18.45;17.65;;;;;;;-141.02;71.95;42377.16;5133061;27;20192;-60
2023/07/27 08:09:19;;;;;;;18.00;17.20;;;;;;;-141.02;72.19;42390.59;5132630;28;20737;-60
2023/07/27 08:11:45;;;;;;;18.40;17.60;;;;;;;-141.02;71.13;42409.78;5132651;28;20193;-60
2023/07/27 08:14:12;;;;;;;17.60;16.80;;;;;;;-141.02;70.74;42428.97;5132687;27;20202;-60
2023/07/27 08:16:41;;;;;;;18.35;17.55;;;;;;;-141.02;72.22;42452.00;5136586;27;20353;-59
2023/07/27 08:19:08;;;;;;;18.05;17.25;;;;;;;-141.02;71.19;42482.72;5137031;27;20762;-59
2023/07/27 08:21:35;;;;;;;18.17;17.38;;;;;;;-141.02;72.04;42498.06;5136619;27;20193;-60
2023/07/27 08:24:02;;;;;;;18.70;17.83;;;;;;;-141.02;70.83;42501.91;5136917;27;20253;-59
2023/07/27 08:26:29;;;;;;;18.40;17.60;;;;;;;-141.02;71.30;42524.94;5136596;27;20650;-59
2023/07/27 08:28:57;;;;;;;17.85;17.05;;;;;;;-141.02;69.78;42532.63;5136878;27;20200;-61
2023/07/27 08:31:24;;;;;;;17.90;17.10;;;;;;;-141.02;70.42;42521.13;5136471;27;20199;-58
2023/07/27 08:33:53;;;;;;;18.20;17.40;;;;;;;-141.02;69.33;42548.00;5136764;27;20203;-58
2023/07/27 08:36:20;;;;;;;18.35;17.55;;;;;;;-141.02;69.34;42563.34;5136750;27;20275;-59
2023/07/27 08:38:47;;;;;;;18.27;17.48;;;;;;;-141.02;68.42;42594.06;5136113;27;20281;-59
2023/07/27 08:41:14;;;;;;;18.63;17.73;;;;;;;-141.02;67.87;42580.63;5136819;27;20279;-64
2023/07/27 08:43:40;;;;;;;18.48;17.58;;;;;;;-141.02;68.42;42605.56;5136282;27;20196;-61
2023/07/27 08:46:08;;;;;;;19.92;19.02;;;;;;;-141.02;68.74;42634.38;5136218;27;20279;-59
2023/07/27 08:48:36;;;;;;;18.92;18.02;;;;;;;-141.02;69.65;42628.63;5136504;27;20199;-63
2023/07/27 08:51:04;;;;;;;20.20;19.30;;;;;;;-141.02;68.97;42663.16;5136045;27;20197;-60
2023/07/27 08:53:31;;;;;;;18.40;17.50;;;;;;;-141.02;68.68;42647.81;5136092;27;20199;-59
2023/07/27 08:55:58;;;;;;;18.90;18.00;;;;;;;-141.02;68.22;42667.00;5136280;27;20629;-64
2023/07/27 08:58:26;;;;;;;18.30;17.40;;;;;;;-141.02;68.22;42676.59;5135851;27;20731;-64
2023/07/27 09:00:53;;;;;;;18.15;17.25;;;;;;;-141.02;67.83;42697.72;5135797;27;20674;-66
2023/07/27 09:03:21;;;;;;;18.42;17.52;;;;;;;-141.02;66.57;42672.75;5136090;27;20196;-64
2023/07/27 09:05:58;;;;;;;18.48;17.58;;;;;;;-141.02;67.26;42697.72;5134606;27;20229;-59
2023/07/27 09:08:28;;;;;;;18.50;17.60;;;;;;;-141.02;65.78;42693.88;5135665;27;20184;-62
2023/07/27 09:11:04;;;;;;;18.73;17.83;;;;;;;-141.02;65.45;42728.44;5135717;27;20196;-60
2023/07/27 09:13:31;;;;;;;18.38;17.48;;;;;;;-141.02;65.27;42747.63;5135609;27;20245;-65
2023/07/27 09:15:58;;;;;;;18.15;17.35;;;;;;;-141.02;65.89;42766.81;5135927;27;20188;-65
2023/07/27 09:18:27;;;;;;;19.80;18.80;;;;;;;-141.02;67.73;42812.91;5135531;27;20202;-62
2023/07/27 09:20:56;;;;;;;18.45;17.55;;;;;;;-141.02;68.80;42797.53;5135391;27;20228;-66
2023/07/27 09:23:23;;;;;;;19.98;19.10;;;;;;;-141.02;68.77;42803.31;5135787;27;20192;-61
2023/07/27 09:25:55;;;;;;;24.02;22.92;;;;;;;-141.02;69.19;42809.06;5134785;27;20632;-65
2023/07/27 09:28:27;;;;;;;18.75;17.85;;;;;;;-141.02;70.99;42847.47;5135080;27;20228;-64
2023/07/27 09:30:58;;;;;;;21.25;20.25;;;;;;;-141.02;70.80;42824.41;5135264;27;20280;-63
2023/07/27 09:33:25;;;;;;;18.13;17.33;;;;;;;-141.02;67.89;42793.69;5135309;27;20189;-60
2023/07/27 09:35:53;;;;;;;18.45;17.55;;;;;;;-141.02;67.37;42807.13;5135224;27;20287;-61
2023/07/27 09:38:24;;;;;;;19.13;18.23;;;;;;;-141.02;66.56;42801.38;5135117;27;20315;-63
2023/07/27 09:40:52;;;;;;;18.42;17.52;;;;;;;-141.02;66.77;42853.22;5135347;27;20218;-65
2023/07/27 09:43:23;;;;;;;18.17;17.33;;;;;;;-141.02;66.05;42824.41;5135114;27;20231;-60
2023/07/27 09:45:56;;;;;;;18.45;17.55;;;;;;;-141.02;67.49;42857.06;5135146;27;20662;-60
2023/07/27 09:48:24;;;;;;;23.75;22.65;;;;;;;-141.02;67.32;42832.09;5135096;27;20185;-60
2023/07/27 09:50:52;;;;;;;18.90;18.00;;;;;;;-141.02;67.14;42835.94;5134979;27;20282;-61
2023/07/27 09:53:21;;;;;;;21.20;20.20;;;;;;;-141.02;66.74;42872.41;5134834;27;20617;-61
2023/07/27 09:55:49;;;;;;;19.60;18.70;;;;;;;-141.02;66.42;42874.34;5135194;27;20216;-61
2023/07/27 09:58:16;;;;;;;18.25;17.45;;;;;;;-141.02;66.25;42897.38;5135023;27;20200;-59
2023/07/27 10:00:45;;;;;;;18.65;17.75;;;;;;;-141.02;65.74;42893.53;5134637;27;20256;-60
2023/07/27 10:03:12;;;;;;;18.30;17.50;;;;;;;-141.02;64.86;42908.88;5134903;27;20205;-61
2023/07/27 10:05:40;;;;;;;19.30;18.40;;;;;;;-141.02;65.84;42889.69;5134556;27;20192;-60
2023/07/27 10:08:07;;;;;;;21.80;20.80;;;;;;;-141.02;65.01;42912.72;5134527;27;20655;-59
2023/07/27 10:10:39;;;;;;;18.63;17.73;;;;;;;-141.02;63.69;42889.69;5134507;27;20287;-64
2023/07/27 10:13:11;;;;;;;18.38;17.48;;;;;;;-141.02;64.68;42905.06;5134518;27;20196;-64
2023/07/27 10:15:42;;;;;;;18.42;17.52;;;;;;;-141.02;64.97;42933.84;5134428;27;20189;-60
2023/07/27 10:18:14;;;;;;;21.23;20.23;;;;;;;-141.02;64.83;42954.97;5134704;27;20283;-59
2023/07/27 10:20:41;;;;;;;18.80;17.90;;;;;;;-141.02;65.30;42926.16;5134242;27;20208;-61
2023/07/27 10:23:10;;;;;;;18.80;17.90;;;;;;;-141.02;62.85;42956.88;5134281;27;20279;-60
2023/07/27 10:26:02;;;;;;;18.27;17.48;;;;;;;-141.02;64.21;42985.69;5134494;27;20192;-60
2023/07/27 10:28:36;;;;;;;18.35;17.45;;;;;;;-141.02;64.75;43001.03;5134485;27;20200;-58
2023/07/27 10:31:17;;;;;;;17.98;17.17;;;;;;;-141.02;63.98;43020.25;5135036;27;20223;-62
2023/07/27 10:33:47;;;;;;;18.08;17.23;;;;;;;-141.02;64.21;42978.00;5134275;27;20192;-59
2023/07/27 10:36:14;;;;;;;22.05;20.95;;;;;;;-141.02;62.63;43010.63;5134561;27;20192;-60
2023/07/27 10:38:50;;;;;;;18.85;17.95;;;;;;;-141.02;62.38;43062.47;5133594;27;20220;-66
2023/07/27 10:41:17;;;;;;;18.70;17.80;;;;;;;-141.02;61.69;43054.78;5133773;27;20223;-60
2023/07/27 10:44:15;;;;;;;18.55;17.65;;;;;;;-141.02;62.54;43077.84;5134158;27;20224;-61
2023/07/27 10:46:47;;;;;;;18.45;17.55;;;;;;;-141.02;62.56;43085.50;5134117;27;20301;-59
2023/07/27 10:49:16;;;;;;;17.65;16.85;;;;;;;-141.02;62.88;43074.00;5134082;27;20564;-63
2023/07/27 10:51:45;;;;;;;18.90;18.00;;;;;;;-141.02;63.57;43089.34;5134002;27;20196;-59
2023/07/27 10:54:12;;;;;;;22.60;21.60;;;;;;;-141.02;63.36;43120.06;5133661;27;20205;-61
2023/07/27 10:56:42;;;;;;;18.70;17.80;;;;;;;-141.02;63.87;43108.56;5133583;27;20243;-61
2023/07/27 10:59:13;;;;;;;18.33;17.42;;;;;;;-141.02;63.16;43104.72;5133836;27;20243;-59
2023/07/27 11:01:40;;;;;;;18.67;17.77;;;;;;;-141.02;62.13;43104.72;5133917;27;20276;-59
2023/07/27 11:04:07;;;;;;;19.42;18.50;;;;;;;-141.02;62.92;43123.91;5133811;27;20220;-61
2023/07/27 11:06:43;;;;;;;18.55;17.65;;;;;;;-141.02;62.41;43108.56;5133682;27;20737;-59
2023/07/27 11:09:12;;;;;;;19.77;18.80;;;;;;;-141.02;62.71;43104.72;5133784;27;20191;-59
2023/07/27 11:11:39;;;;;;;19.65;18.65;;;;;;;-141.02;62.04;43098.94;5133341;27;20196;-60
2023/07/27 11:14:07;;;;;;;18.52;17.63;;;;;;;-141.02;60.19;43120.06;5133595;27;20243;-60
2023/07/27 11:16:37;;;;;;;19.38;18.38;;;;;;;-141.02;61.95;43164.22;5133585;27;20715;-61
2023/07/27 11:19:04;;;;;;;18.52;17.63;;;;;;;-141.02;61.18;43196.88;5133703;27;20196;-62
2023/07/27 11:21:33;;;;;;;18.85;17.90;;;;;;;-141.02;59.92;43194.94;5133440;27;20220;-60
2023/07/27 11:24:03;;;;;;;18.45;17.55;;;;;;;-141.02;60.42;43189.19;5133534;27;20192;-60
2023/07/27 11:26:30;;;;;;;19.05;18.05;;;;;;;-141.02;60.90;43191.09;5133722;27;20192;-59
2023/07/27 11:29:00;;;;;;;19.40;18.40;;;;;;;-141.02;61.03;43237.19;5133058;27;20654;-61
2023/07/27 11:31:28;;;;;;;18.98;17.98;;;;;;;-141.02;62.09;43269.81;5133512;27;20230;-61
2023/07/27 11:33:59;;;;;;;18.58;17.67;;;;;;;-141.02;60.79;43250.63;5133308;27;20192;-66
2023/07/27 11:36:30;;;;;;;18.27;17.38;;;;;;;-141.02;60.85;43242.94;5133421;27;20203;-60
2023/07/27 11:38:58;;;;;;;18.65;17.70;;;;;;;-141.02;60.10;43206.47;5132872;27;20244;-62
2023/07/27 11:41:29;;;;;;;19.35;18.35;;;;;;;-141.02;60.07;43267.91;5133078;27;20273;-64
2023/07/27 11:43:57;;;;;;;25.58;24.27;;;;;;;-141.02;60.75;43269.81;5132982;27;20226;-63
2023/07/27 11:46:26;;;;;;;18.95;17.95;;;;;;;-141.02;60.97;43300.56;5133163;28;20214;-59
2023/07/27 11:48:53;;;;;;;19.65;18.65;;;;;;;-141.02;59.99;43266.00;5132918;27;20312;-65
2023/07/27 11:51:20;;;;;;;18.83;17.83;;;;;;;-141.02;59.92;43277.50;5132759;27;20200;-59
2023/07/27 11:53:48;;;;;;;19.88;18.88;;;;;;;-141.02;59.33;43273.66;5132848;28;20662;-61
2023/07/27 11:56:15;;;;;;;19.20;18.20;;;;;;;-141.02;58.43;43266.00;5133064;27;20605;-64
2023/07/27 11:58:46;;;;;;;18.98;17.98;;;;;;;-141.02;58.46;43292.88;5133149;28;20284;-67
2023/07/27 12:01:16;;;;;;;18.88;17.88;;;;;;;-141.02;58.64;43275.59;5132967;28;20247;-63
2023/07/27 12:03:44;;;;;;;18.92;17.92;;;;;;;-141.02;58.80;43292.88;5132797;28;20198;-65